Terminal Aerodrome Forecast
Issued by NWS Pittsburgh, PA

Current Version | Previous Version | Graphics & Text | Print | Product List | Glossary On
Versions: 1 2 3 4 5 6 7 8 9 10 11 12 13 14 15 16 17 18 19 20 21 22 23 24 25 26 27 28 29 30
000
FTUS41 KPBZ 041400 AAA
TAFPIT
TAF AMD
KPIT 041449Z 0415/0518 25003KT 3SM BR BKN007 OVC014
     FM041600 29005KT 5SM BR OVC010
     FM042200 32008KT 2SM -SN BR OVC010
     FM050300 32009KT 5SM -SN BR OVC015
     FM050900 34006KT P6SM OVC015=

USA.gov is the U.S. government's official web portal to all federal, state and local government web resources and services.